createdAt,value
2023-02-17T00:04:56.342Z,81.76
2023-02-17T00:10:04.447Z,81.79
2023-02-17T00:15:12.675Z,81.82
2023-02-17T00:20:20.513Z,81.86
2023-02-17T00:25:28.939Z,81.89
2023-02-17T00:30:36.786Z,81.89
2023-02-17T00:35:47.141Z,81.94
2023-02-17T00:40:54.594Z,81.96
2023-02-17T00:46:04.670Z,81.99
2023-02-17T00:51:12.850Z,82.02
2023-02-17T00:56:21.017Z,82.06
2023-02-17T01:01:29.518Z,82.06
2023-02-17T01:06:40.757Z,82.08
2023-02-17T01:11:48.261Z,82.11
2023-02-17T01:16:55.673Z,82.12
2023-02-17T01:22:03.217Z,82.15
2023-02-17T01:27:10.946Z,82.18
2023-02-17T01:32:19.092Z,82.21
2023-02-17T01:37:28.313Z,82.22
2023-02-17T01:42:35.807Z,82.24
2023-02-17T01:47:43.460Z,82.26
2023-02-17T01:52:55.462Z,82.29
2023-02-17T01:58:06.665Z,82.33
2023-02-17T02:03:16.939Z,82.34
2023-02-17T02:08:24.386Z,82.35
2023-02-17T02:13:32.501Z,82.37
2023-02-17T02:18:51.295Z,82.40
2023-02-17T02:24:17.782Z,82.41
2023-02-17T02:29:58.407Z,82.43
2023-02-17T02:35:10.971Z,82.41
2023-02-17T02:40:22.285Z,82.45
2023-02-17T02:45:30.032Z,82.47
2023-02-17T02:50:52.268Z,82.49
2023-02-17T02:56:05.188Z,82.47
2023-02-17T03:01:19.725Z,82.44
2023-02-17T03:06:33.869Z,82.43
2023-02-17T03:11:42.174Z,82.42
2023-02-17T03:16:50.656Z,82.44
2023-02-17T03:22:03.716Z,82.47
2023-02-17T03:27:12.612Z,82.50
2023-02-17T03:32:20.830Z,82.55
2023-02-17T03:37:28.717Z,82.59
2023-02-17T03:42:36.281Z,82.63
2023-02-17T03:47:43.925Z,82.64
2023-02-17T03:52:51.280Z,82.67
2023-02-17T03:57:58.803Z,82.67
2023-02-17T04:03:06.225Z,82.68
2023-02-17T04:08:13.760Z,82.68
2023-02-17T04:13:21.155Z,82.69
2023-02-17T04:18:28.731Z,82.69
2023-02-17T04:23:38.324Z,82.68
2023-02-17T04:28:46.343Z,82.68
2023-02-17T04:33:54.150Z,82.68
2023-02-17T04:39:01.861Z,82.71
2023-02-17T04:44:09.201Z,82.75
2023-02-17T04:49:16.702Z,82.76
2023-02-17T04:54:24.587Z,82.79
2023-02-17T04:59:32.430Z,82.83
2023-02-17T05:04:39.898Z,82.86
2023-02-17T05:09:47.673Z,82.91
2023-02-17T05:14:55.567Z,82.96
2023-02-17T05:20:03.510Z,83.00
2023-02-17T05:25:12.058Z,83.03
2023-02-17T05:30:20.326Z,83.13
2023-02-17T05:35:27.854Z,83.20
2023-02-17T05:40:35.915Z,83.23
2023-02-17T05:45:43.184Z,83.29
2023-02-17T05:50:51.460Z,83.32
2023-02-17T05:55:59.303Z,83.35
2023-02-17T06:01:11.639Z,83.41
2023-02-17T06:06:20.177Z,83.44
2023-02-17T06:11:28.406Z,83.46
2023-02-17T06:16:36.267Z,83.50
2023-02-17T06:21:43.920Z,83.53
2023-02-17T06:26:51.672Z,83.54
2023-02-17T06:31:59.545Z,83.57
2023-02-17T06:37:07.353Z,83.59
2023-02-17T06:42:15.860Z,83.63
2023-02-17T06:47:23.624Z,83.65
2023-02-17T06:52:31.513Z,83.68
2023-02-17T06:57:39.253Z,83.71
2023-02-17T07:02:47.349Z,83.77
2023-02-17T07:07:56.474Z,83.79
2023-02-17T07:13:05.013Z,83.81
2023-02-17T07:18:12.824Z,83.86
2023-02-17T07:23:21.018Z,83.91
2023-02-17T07:28:28.756Z,83.96
2023-02-17T07:33:37.430Z,83.99
2023-02-17T07:38:45.640Z,84.03
2023-02-17T07:43:56.099Z,84.07
2023-02-17T07:49:07.025Z,84.09
2023-02-17T07:54:15.472Z,84.11
2023-02-17T07:59:23.142Z,84.10
2023-02-17T08:04:30.591Z,84.12
2023-02-17T08:09:58.034Z,84.13
2023-02-17T08:15:05.391Z,84.15
2023-02-17T08:20:16.307Z,84.21
2023-02-17T08:25:24.698Z,84.28
2023-02-17T08:30:32.475Z,84.33
2023-02-17T08:35:42.371Z,84.36
2023-02-17T08:40:52.902Z,84.38
2023-02-17T08:46:01.459Z,84.34
2023-02-17T08:51:09.924Z,84.30
2023-02-17T08:56:19.483Z,84.27
2023-02-17T09:01:28.511Z,84.23
2023-02-17T09:06:42.231Z,84.20
2023-02-17T09:11:51.183Z,84.14
2023-02-17T09:17:00.089Z,84.12
2023-02-17T09:22:07.984Z,84.13
2023-02-17T09:27:16.588Z,84.12
2023-02-17T09:32:24.340Z,84.15
2023-02-17T09:37:32.003Z,84.18
2023-02-17T09:42:42.470Z,84.17
2023-02-17T09:47:53.548Z,84.17
2023-02-17T09:53:05.407Z,84.20
2023-02-17T09:58:18.702Z,84.22
2023-02-17T10:03:32.909Z,84.29
2023-02-17T10:08:47.704Z,84.35
2023-02-17T10:13:57.587Z,84.42
2023-02-17T10:19:15.303Z,84.49
2023-02-17T10:24:23.360Z,84.49
2023-02-17T10:29:40.034Z,84.51
2023-02-17T10:35:02.155Z,84.51
2023-02-17T10:40:17.162Z,84.51
2023-02-17T10:45:31.980Z,84.55
2023-02-17T10:50:43.657Z,84.59
2023-02-17T10:56:01.530Z,84.62
2023-02-17T11:01:09.362Z,84.64
2023-02-17T11:06:23.452Z,84.69
2023-02-17T11:11:33.454Z,84.67
2023-02-17T11:16:44.502Z,84.68
2023-02-17T11:21:52.135Z,84.68
2023-02-17T11:27:03.560Z,84.68
2023-02-17T11:32:14.175Z,84.65
2023-02-17T11:37:28.385Z,84.63
2023-02-17T11:42:36.330Z,84.58
2023-02-17T11:47:55.399Z,84.54
2023-02-17T11:53:24.415Z,84.52
2023-02-17T11:58:51.848Z,84.44
2023-02-17T12:04:29.487Z,84.38
2023-02-17T12:09:48.242Z,84.35
2023-02-17T12:15:13.392Z,84.36
2023-02-17T12:20:39.966Z,84.35
2023-02-17T12:25:53.283Z,84.38
2023-02-17T12:31:12.137Z,84.40
2023-02-17T12:36:22.887Z,84.41
2023-02-17T12:41:35.153Z,84.42
2023-02-17T12:46:44.097Z,84.39
2023-02-17T12:51:55.302Z,84.12
2023-02-17T12:57:19.215Z,84.24
2023-02-17T13:02:28.835Z,84.20
2023-02-17T13:07:45.897Z,84.21
2023-02-17T13:13:06.313Z,84.20
2023-02-17T13:18:30.666Z,84.21
2023-02-17T13:23:43.293Z,84.21
2023-02-17T13:28:53.622Z,84.19
2023-02-17T13:34:02.774Z,84.17
2023-02-17T13:39:35.620Z,84.14
2023-02-17T13:44:47.327Z,84.12
2023-02-17T13:49:59.431Z,84.10
2023-02-17T13:55:09.510Z,84.09
2023-02-17T14:00:26.493Z,84.07
2023-02-17T14:05:45.213Z,84.06
2023-02-17T14:10:53.359Z,84.07
2023-02-17T14:16:02.474Z,84.09
2023-02-17T14:21:12.970Z,84.10
2023-02-17T14:26:33.639Z,84.11
2023-02-17T14:31:46.566Z,84.11
2023-02-17T14:36:55.070Z,84.14
2023-02-17T14:42:03.400Z,84.17
2023-02-17T14:47:12.588Z,84.21
2023-02-17T14:52:23.826Z,84.20
2023-02-17T14:57:31.481Z,84.20
2023-02-17T15:02:39.074Z,84.24
2023-02-17T15:07:48.359Z,84.26
2023-02-17T15:12:58.302Z,84.30
2023-02-17T15:18:06.012Z,84.35
2023-02-17T15:23:17.321Z,84.39
2023-02-17T15:28:25.652Z,84.40
2023-02-17T15:33:34.256Z,84.42
2023-02-17T15:38:41.893Z,84.48
2023-02-17T15:43:51.054Z,84.49
2023-02-17T15:48:58.525Z,84.54
2023-02-17T15:54:07.873Z,84.58
2023-02-17T15:59:20.713Z,84.64
2023-02-17T16:04:29.063Z,84.67
2023-02-17T16:09:37.498Z,84.72
2023-02-17T16:14:47.011Z,84.80
2023-02-17T16:19:56.175Z,84.85
2023-02-17T16:25:05.219Z,84.91
2023-02-17T16:30:25.558Z,84.97
2023-02-17T16:35:35.401Z,85.05
2023-02-17T16:40:47.644Z,85.13
2023-02-17T16:46:04.817Z,85.19
2023-02-17T16:51:13.536Z,85.24
2023-02-17T16:56:28.040Z,85.42
2023-02-17T17:01:38.204Z,85.45
2023-02-17T17:06:50.349Z,85.46
2023-02-17T17:11:58.908Z,85.48
2023-02-17T17:17:08.315Z,85.51
2023-02-17T17:22:17.007Z,85.53
2023-02-17T17:27:25.820Z,85.58
2023-02-17T17:32:33.078Z,85.68
2023-02-17T17:37:41.750Z,85.80
2023-02-17T17:42:50.575Z,85.94
2023-02-17T17:48:01.373Z,86.01
2023-02-17T17:53:11.309Z,86.02
2023-02-17T17:58:19.818Z,86.05
2023-02-17T18:03:30.679Z,86.11
2023-02-17T18:08:39.957Z,86.16
2023-02-17T18:13:52.411Z,86.19
2023-02-17T18:19:03.316Z,86.21
2023-02-17T18:24:12.232Z,86.27
2023-02-17T18:29:20.702Z,86.33
2023-02-17T18:34:28.428Z,86.34
2023-02-17T18:39:36.512Z,86.36
2023-02-17T18:44:44.438Z,86.43
2023-02-17T18:49:52.751Z,86.44
2023-02-17T18:55:00.291Z,86.53
2023-02-17T19:00:11.221Z,86.54
2023-02-17T19:05:19.167Z,86.59
2023-02-17T19:10:28.161Z,86.63
2023-02-17T19:15:38.436Z,86.70
2023-02-17T19:20:48.503Z,86.74
2023-02-17T19:25:57.184Z,86.74
2023-02-17T19:31:07.624Z,86.87
2023-02-17T19:36:17.516Z,86.94
2023-02-17T19:41:26.226Z,87.02
2023-02-17T19:46:34.478Z,87.04
2023-02-17T19:51:42.712Z,87.10
2023-02-17T19:56:51.373Z,87.20
2023-02-17T20:02:00.229Z,87.27
2023-02-17T20:07:08.557Z,87.34
2023-02-17T20:12:18.120Z,87.57
2023-02-17T20:17:26.326Z,87.73
2023-02-17T20:22:33.751Z,87.76
2023-02-17T20:27:41.877Z,87.82
2023-02-17T20:32:50.974Z,87.87
2023-02-17T20:37:59.671Z,87.92
2023-02-17T20:43:07.166Z,88.16
2023-02-17T20:48:14.940Z,88.33
2023-02-17T20:53:22.927Z,88.50
2023-02-17T20:58:30.599Z,88.47
2023-02-17T21:03:38.622Z,88.40
2023-02-17T21:08:47.930Z,88.34
2023-02-17T21:13:57.725Z,88.24
2023-02-17T21:19:06.826Z,87.78
2023-02-17T21:24:15.257Z,87.48
2023-02-17T21:29:24.209Z,86.88
2023-02-17T21:34:32.980Z,86.23
2023-02-17T21:39:40.540Z,85.35
2023-02-17T21:44:55.792Z,84.78
2023-02-17T21:50:04.115Z,84.45
2023-02-17T21:55:11.879Z,83.53
2023-02-17T22:00:21.353Z,82.80
2023-02-17T22:05:32.201Z,82.39
2023-02-17T22:10:43.035Z,82.16
2023-02-17T22:16:00.907Z,81.68
2023-02-17T22:21:11.629Z,81.27
2023-02-17T22:26:21.063Z,81.46
2023-02-17T22:31:30.562Z,81.01
2023-02-17T22:36:39.310Z,81.28
2023-02-17T22:41:46.945Z,81.61
2023-02-17T22:46:54.313Z,81.71
2023-02-17T22:52:02.336Z,81.27
2023-02-17T22:57:09.748Z,81.05
2023-02-17T23:02:17.790Z,81.49
2023-02-17T23:07:25.975Z,81.47
2023-02-17T23:12:34.470Z,81.79
2023-02-17T23:17:56.653Z,81.82
2023-02-17T23:23:05.122Z,81.83
2023-02-17T23:28:13.418Z,81.61
2023-02-17T23:33:23.980Z,81.54
2023-02-17T23:38:32.998Z,81.31
2023-02-17T23:43:41.740Z,81.13
2023-02-17T23:48:49.806Z,80.61
2023-02-17T23:53:57.237Z,80.56
2023-02-17T23:59:05.506Z,80.50
